Tolleson, Arizona
Current Conditions -  °F | °C
As of 6:47 PM on Wednesday 26 Nov 2014 (Local Time) from KGYR Reporting Station
Clear Clear  
Wind Chill: 63°   Ceiling: Unl
Heat Index: 63°   Visibility: 10mi
Dew Point: 25°   Wind: 0mph
Humidity: 24%   Direction: NA
Pressure: 30.19"   Gusts: NA
Location:  33.45°N, 112.26°W
Report Text: KGYR 270147Z 00000KT 10SM SKC 17/M04 A3019
Loading
Personal Weather Stations






























Interactive Weather Map New forecast layout! Learn more

10-Day Weather Forecast

Advertisements
Track Severe Weather on mobile